URMG 171730Z 35002MPS CAVOK 16/09 Q1014 R26/090070 NOSIG RMK QFE746/0994
QNH:(hPa/inHg/mmHg)1014 / 29.94 / 761
QFE:(hPa/inHg/mmHg)994 / 29.35 / 745
Temperature16
Dew Point9
Visibility> 10000
WeatherCAVOK
Cloud Cover
Transition Height1900 m./6800 ft.
Transition LevelFL80
SQUAWK